Time;durP1;ratioP1;P1;durP2;ratioP2;P2;SDS_P1;SDS_P2;PMS_P1;PMS_P2;Temp;Humidity;BMP_temperature;BMP_pressure;BME280_temperature;BME280_humidity;BME280_pressure;Samples;Min_cycle;Max_cycle;Signal;HPM_P1;HPM_P2
2023/07/05 00:00:20;;;;;;;3.47;1.73;;;;;;;;;;5282923;28;20013;-73
2023/07/05 00:02:52;;;;;;;2.88;2.10;;;;;;;;;;5281745;28;20074;-73
2023/07/05 00:05:23;;;;;;;4.22;2.03;;;;;;;;;;5282192;28;20107;-73
2023/07/05 00:07:55;;;;;;;4.53;1.77;;;;;;;;;;5282623;28;20550;-73
2023/07/05 00:10:26;;;;;;;3.13;1.35;;;;;;;;;;5281750;28;20021;-73
2023/07/05 00:12:59;;;;;;;3.03;1.17;;;;;;;;;;5282244;28;20559;-73
2023/07/05 00:15:31;;;;;;;3.22;1.38;;;;;;;;;;5282699;28;20768;-74
2023/07/05 00:18:03;;;;;;;3.33;1.20;;;;;;;;;;5281566;28;20017;-74
2023/07/05 00:20:36;;;;;;;1.85;0.85;;;;;;;;;;5282342;28;20027;-73
2023/07/05 00:23:07;;;;;;;4.22;0.90;;;;;;;;;;5282251;28;20471;-74
2023/07/05 00:25:38;;;;;;;3.10;1.00;;;;;;;;;;5281441;28;20027;-73
2023/07/05 00:28:09;;;;;;;2.87;0.90;;;;;;;;;;5282100;28;20024;-73
2023/07/05 00:30:41;;;;;;;3.28;1.20;;;;;;;;;;5281993;28;20745;-74
2023/07/05 00:33:12;;;;;;;6.30;1.50;;;;;;;;;;5281655;28;20071;-73
2023/07/05 00:35:51;;;;;;;3.67;1.17;;;;;;;;;;5281803;28;20020;-73
2023/07/05 00:38:22;;;;;;;3.38;1.15;;;;;;;;;;5281458;28;20032;-73
2023/07/05 00:40:53;;;;;;;1.90;1.00;;;;;;;;;;5281670;28;20016;-73
2023/07/05 00:43:24;;;;;;;3.40;1.10;;;;;;;;;;5282015;28;20016;-72
2023/07/05 00:46:02;;;;;;;2.80;1.00;;;;;;;;;;5281115;28;20045;-73
2023/07/05 00:48:36;;;;;;;2.55;0.93;;;;;;;;;;5281767;28;20024;-72
2023/07/05 00:51:16;;;;;;;2.25;0.88;;;;;;;;;;5282072;28;20062;-72
2023/07/05 00:53:47;;;;;;;2.97;0.90;;;;;;;;;;5280613;28;20052;-72
2023/07/05 00:56:23;;;;;;;3.60;1.10;;;;;;;;;;5282200;28;20020;-72
2023/07/05 00:58:55;;;;;;;2.70;1.08;;;;;;;;;;5281670;28;20028;-72
2023/07/05 01:01:27;;;;;;;6.00;1.52;;;;;;;;;;5281186;28;20383;-72
2023/07/05 01:03:59;;;;;;;3.63;1.08;;;;;;;;;;5281935;28;20103;-73
2023/07/05 01:06:30;;;;;;;4.15;1.10;;;;;;;;;;5281073;28;20078;-75
2023/07/05 01:09:04;;;;;;;2.70;0.93;;;;;;;;;;5281867;28;20016;-72
2023/07/05 01:12:10;;;;;;;2.10;1.20;;;;;;;;;;5282180;28;20413;-72
2023/07/05 01:14:47;;;;;;;3.00;1.10;;;;;;;;;;5196087;28;20030;-73
2023/07/05 01:17:30;;;;;;;3.17;0.90;;;;;;;;;;5272808;28;20021;-74
2023/07/05 01:20:21;;;;;;;2.67;0.80;;;;;;;;;;5286225;28;20029;-74
2023/07/05 01:23:07;;;;;;;3.67;1.00;;;;;;;;;;5285725;28;20016;-74
2023/07/05 01:25:38;;;;;;;3.00;0.70;;;;;;;;;;5285939;28;20029;-73
2023/07/05 01:28:09;;;;;;;3.47;0.77;;;;;;;;;;5284969;28;20529;-74
2023/07/05 01:30:44;;;;;;;2.60;0.80;;;;;;;;;;5285364;28;20783;-74
2023/07/05 01:33:19;;;;;;;2.60;0.80;;;;;;;;;;5285967;28;20395;-73
2023/07/05 01:35:52;;;;;;;1.73;0.82;;;;;;;;;;5284509;28;20020;-73
2023/07/05 01:38:23;;;;;;;1.75;0.77;;;;;;;;;;5285669;28;20348;-73
2023/07/05 01:41:00;;;;;;;4.22;0.60;;;;;;;;;;5285724;28;20019;-73
2023/07/05 01:43:33;;;;;;;2.15;0.60;;;;;;;;;;5284803;28;20024;-73
2023/07/05 01:46:07;;;;;;;1.40;0.65;;;;;;;;;;5285316;28;20024;-73
2023/07/05 01:48:38;;;;;;;2.80;0.65;;;;;;;;;;5284538;28;20027;-73
2023/07/05 01:51:28;;;;;;;2.88;0.70;;;;;;;;;;5285208;28;20016;-74
2023/07/05 01:53:59;;;;;;;2.13;0.50;;;;;;;;;;5285410;28;20047;-74
2023/07/05 01:56:51;;;;;;;1.75;0.75;;;;;;;;;;5284407;28;20021;-74
2023/07/05 01:59:23;;;;;;;1.83;0.60;;;;;;;;;;5284621;28;20039;-74
2023/07/05 02:01:58;;;;;;;2.40;0.80;;;;;;;;;;5285192;28;20463;-74
2023/07/05 02:04:35;;;;;;;1.35;0.50;;;;;;;;;;5284324;28;20098;-74
2023/07/05 02:07:06;;;;;;;1.35;0.57;;;;;;;;;;5285120;28;20017;-74
2023/07/05 02:09:38;;;;;;;2.45;0.50;;;;;;;;;;5284140;28;20039;-73
2023/07/05 02:12:09;;;;;;;5.38;0.80;;;;;;;;;;5284667;28;20025;-73
2023/07/05 02:14:40;;;;;;;2.45;0.50;;;;;;;;;;5284848;28;20093;-73
2023/07/05 02:17:12;;;;;;;2.75;0.65;;;;;;;;;;5284257;28;20091;-74
2023/07/05 02:19:44;;;;;;;1.52;0.50;;;;;;;;;;5284470;28;20517;-73
2023/07/05 02:22:15;;;;;;;1.10;0.40;;;;;;;;;;5284910;28;20055;-73
2023/07/05 02:24:50;;;;;;;1.33;0.60;;;;;;;;;;5283463;28;20016;-74
2023/07/05 02:27:21;;;;;;;1.60;0.60;;;;;;;;;;5284884;28;20020;-73
2023/07/05 02:29:53;;;;;;;3.05;0.50;;;;;;;;;;5283945;28;20032;-74
2023/07/05 02:32:24;;;;;;;1.58;0.50;;;;;;;;;;5283530;28;20387;-74
2023/07/05 02:34:58;;;;;;;1.50;0.60;;;;;;;;;;5284335;28;20017;-73
2023/07/05 02:37:32;;;;;;;1.83;0.65;;;;;;;;;;5284526;28;20108;-74
2023/07/05 02:40:04;;;;;;;2.60;0.50;;;;;;;;;;5283830;28;20017;-73
2023/07/05 02:42:35;;;;;;;2.47;0.70;;;;;;;;;;5284207;28;20070;-74
2023/07/05 02:45:07;;;;;;;1.70;0.70;;;;;;;;;;5283743;28;20058;-74
2023/07/05 02:47:38;;;;;;;1.42;0.70;;;;;;;;;;5284383;28;20696;-73
2023/07/05 02:50:09;;;;;;;1.23;0.52;;;;;;;;;;5284097;28;20103;-74
2023/07/05 02:52:41;;;;;;;4.55;0.90;;;;;;;;;;5282900;28;20390;-73
2023/07/05 02:55:12;;;;;;;5.70;0.80;;;;;;;;;;5284389;28;20016;-73
2023/07/05 02:57:43;;;;;;;1.83;0.70;;;;;;;;;;5283438;28;20071;-73
2023/07/05 03:00:14;;;;;;;2.53;1.55;;;;;;;;;;5283775;28;20017;-73
2023/07/05 03:02:46;;;;;;;1.98;0.77;;;;;;;;;;5283653;28;20086;-74
2023/07/05 03:05:17;;;;;;;1.77;0.65;;;;;;;;;;5284295;28;20013;-74
2023/07/05 03:07:49;;;;;;;2.53;0.73;;;;;;;;;;5282769;28;20073;-74
2023/07/05 03:10:20;;;;;;;2.65;1.05;;;;;;;;;;5284020;28;20023;-74
2023/07/05 03:12:51;;;;;;;2.90;0.88;;;;;;;;;;5282726;28;20037;-74
2023/07/05 03:15:22;;;;;;;2.03;0.70;;;;;;;;;;5283993;28;20020;-74
2023/07/05 03:17:53;;;;;;;4.38;1.00;;;;;;;;;;5283234;28;20270;-74
2023/07/05 03:20:25;;;;;;;2.03;0.90;;;;;;;;;;5282734;28;20012;-74
2023/07/05 03:22:56;;;;;;;3.28;1.00;;;;;;;;;;5283280;28;20021;-74
2023/07/05 03:25:27;;;;;;;2.13;1.08;;;;;;;;;;5283501;28;20404;-73
2023/07/05 03:27:58;;;;;;;2.17;1.00;;;;;;;;;;5282483;28;20067;-73
2023/07/05 03:30:31;;;;;;;1.90;0.90;;;;;;;;;;5283330;28;20016;-74
2023/07/05 03:33:02;;;;;;;3.65;1.10;;;;;;;;;;5282883;28;20032;-74
2023/07/05 03:35:33;;;;;;;2.88;1.30;;;;;;;;;;5282530;28;20356;-74
2023/07/05 03:38:04;;;;;;;3.20;1.35;;;;;;;;;;5283080;28;20021;-74
2023/07/05 03:40:36;;;;;;;3.53;1.48;;;;;;;;;;5282356;28;20026;-74
2023/07/05 03:43:07;;;;;;;2.88;1.10;;;;;;;;;;5282194;28;20023;-74
2023/07/05 03:45:38;;;;;;;2.28;1.00;;;;;;;;;;5282781;28;20012;-74
2023/07/05 03:48:09;;;;;;;2.60;1.30;;;;;;;;;;5282186;28;20391;-74
2023/07/05 03:50:40;;;;;;;2.10;1.13;;;;;;;;;;5282783;28;20321;-74
2023/07/05 03:53:12;;;;;;;4.22;1.35;;;;;;;;;;5282746;28;20101;-74
2023/07/05 03:55:43;;;;;;;4.70;1.25;;;;;;;;;;5281723;28;20024;-74
2023/07/05 03:58:14;;;;;;;2.72;1.30;;;;;;;;;;5282953;28;20035;-74
2023/07/05 04:00:46;;;;;;;3.90;1.15;;;;;;;;;;5282291;28;20023;-74
2023/07/05 04:03:17;;;;;;;2.42;1.27;;;;;;;;;;5282292;28;20095;-74
2023/07/05 04:05:48;;;;;;;2.92;1.25;;;;;;;;;;5282201;28;20085;-74
2023/07/05 04:08:19;;;;;;;2.95;1.30;;;;;;;;;;5282645;28;20016;-74
2023/07/05 04:10:50;;;;;;;3.08;1.45;;;;;;;;;;5281577;28;20013;-74
2023/07/05 04:13:22;;;;;;;3.00;1.20;;;;;;;;;;5282700;28;20039;-74
2023/07/05 04:16:04;;;;;;;3.45;1.52;;;;;;;;;;5282095;28;20066;-74
2023/07/05 04:18:35;;;;;;;3.45;1.42;;;;;;;;;;5281768;28;20055;-73
2023/07/05 04:21:06;;;;;;;3.53;1.65;;;;;;;;;;5282263;28;20053;-74
2023/07/05 04:23:40;;;;;;;3.15;1.60;;;;;;;;;;5281676;28;20092;-74
2023/07/05 04:26:16;;;;;;;4.35;1.83;;;;;;;;;;5282417;28;20020;-74
2023/07/05 04:28:47;;;;;;;3.58;1.83;;;;;;;;;;5281771;28;20459;-74
2023/07/05 04:31:25;;;;;;;4.25;2.00;;;;;;;;;;5281533;28;20028;-73
2023/07/05 04:33:56;;;;;;;4.20;1.80;;;;;;;;;;5281781;28;20078;-73
2023/07/05 04:36:29;;;;;;;2.42;1.55;;;;;;;;;;5282183;28;20362;-74
2023/07/05 04:39:00;;;;;;;4.75;1.90;;;;;;;;;;5281243;28;20483;-75
2023/07/05 04:41:31;;;;;;;3.65;1.60;;;;;;;;;;5281943;28;20025;-73
2023/07/05 04:44:05;;;;;;;2.85;1.58;;;;;;;;;;5281781;28;20097;-74
2023/07/05 04:46:37;;;;;;;5.93;1.42;;;;;;;;;;5281346;28;20459;-75
2023/07/05 04:49:08;;;;;;;3.90;1.63;;;;;;;;;;5282016;28;20036;-74
2023/07/05 04:51:39;;;;;;;2.67;1.30;;;;;;;;;;5279710;28;20368;-75
2023/07/05 04:54:10;;;;;;;5.32;1.60;;;;;;;;;;5281964;28;20050;-75
2023/07/05 04:56:42;;;;;;;4.85;1.52;;;;;;;;;;5281301;28;20017;-75
2023/07/05 04:59:13;;;;;;;3.78;1.38;;;;;;;;;;5281176;28;20500;-73
2023/07/05 05:01:44;;;;;;;4.10;2.05;;;;;;;;;;5281327;28;20493;-75
2023/07/05 05:04:15;;;;;;;2.73;1.60;;;;;;;;;;5282028;28;20020;-75
2023/07/05 05:06:47;;;;;;;4.57;1.35;;;;;;;;;;5280799;28;20265;-73
2023/07/05 05:09:18;;;;;;;2.58;1.40;;;;;;;;;;5281885;28;20527;-74
2023/07/05 05:11:50;;;;;;;3.42;1.70;;;;;;;;;;5281406;28;20486;-73
2023/07/05 05:14:21;;;;;;;5.15;1.63;;;;;;;;;;5281065;28;20029;-73
2023/07/05 05:16:52;;;;;;;3.55;1.23;;;;;;;;;;5281120;28;20467;-74
2023/07/05 05:19:23;;;;;;;3.60;1.80;;;;;;;;;;5280786;28;20048;-73
2023/07/05 05:21:54;;;;;;;6.85;1.42;;;;;;;;;;5281708;28;20092;-74
2023/07/05 05:24:27;;;;;;;2.90;1.10;;;;;;;;;;5281579;28;20017;-75
2023/07/05 05:26:58;;;;;;;3.58;1.30;;;;;;;;;;5280717;28;20664;-74
2023/07/05 05:29:30;;;;;;;3.33;1.20;;;;;;;;;;5281331;28;20029;-73
2023/07/05 05:32:01;;;;;;;4.03;0.90;;;;;;;;;;5281168;28;20074;-75
2023/07/05 05:34:32;;;;;;;2.30;1.00;;;;;;;;;;5280868;28;20025;-74
2023/07/05 05:37:04;;;;;;;2.42;0.82;;;;;;;;;;5281393;28;20008;-74
2023/07/05 05:39:35;;;;;;;3.17;1.20;;;;;;;;;;5281368;28;20020;-74
2023/07/05 05:42:06;;;;;;;2.72;1.00;;;;;;;;;;5280115;28;20019;-74
2023/07/05 05:44:37;;;;;;;2.72;0.98;;;;;;;;;;5281483;28;20056;-75
2023/07/05 05:47:08;;;;;;;3.30;1.27;;;;;;;;;;5281078;28;20048;-74
2023/07/05 05:49:40;;;;;;;5.90;1.52;;;;;;;;;;5280235;28;20769;-74
2023/07/05 05:52:11;;;;;;;2.50;1.10;;;;;;;;;;5281032;28;20044;-74
2023/07/05 05:54:42;;;;;;;3.10;1.08;;;;;;;;;;5280097;28;20513;-74
2023/07/05 05:57:13;;;;;;;2.40;1.00;;;;;;;;;;5281592;28;20016;-73
2023/07/05 05:59:44;;;;;;;3.35;1.33;;;;;;;;;;5280957;28;20294;-74
2023/07/05 06:02:16;;;;;;;4.25;1.00;;;;;;;;;;5280635;28;20120;-74
2023/07/05 06:04:47;;;;;;;2.92;1.10;;;;;;;;;;5284311;28;20024;-74
2023/07/05 06:07:18;;;;;;;2.15;1.00;;;;;;;;;;5285160;28;20028;-76
2023/07/05 06:09:49;;;;;;;2.75;1.13;;;;;;;;;;5283869;28;20013;-76
2023/07/05 06:12:21;;;;;;;3.78;1.27;;;;;;;;;;5285087;28;20024;-76
2023/07/05 06:14:52;;;;;;;2.83;1.08;;;;;;;;;;5284488;28;20021;-75
2023/07/05 06:17:23;;;;;;;2.40;0.88;;;;;;;;;;5283841;28;20016;-75
2023/07/05 06:19:54;;;;;;;2.77;0.80;;;;;;;;;;5284562;28;20024;-74
2023/07/05 06:22:26;;;;;;;3.95;1.10;;;;;;;;;;5284734;28;20831;-74
2023/07/05 06:24:57;;;;;;;3.70;0.80;;;;;;;;;;5283864;28;20047;-74
2023/07/05 06:27:28;;;;;;;3.17;0.68;;;;;;;;;;5284546;28;20013;-74
2023/07/05 06:30:00;;;;;;;1.98;0.90;;;;;;;;;;5283822;28;20135;-74
2023/07/05 06:32:32;;;;;;;2.22;0.82;;;;;;;;;;5284455;28;20016;-75
2023/07/05 06:35:03;;;;;;;3.25;0.70;;;;;;;;;;5284225;28;20074;-73
2023/07/05 06:37:35;;;;;;;1.63;0.55;;;;;;;;;;5283452;28;20459;-74
2023/07/05 06:40:06;;;;;;;5.10;0.70;;;;;;;;;;5284344;28;20028;-73
2023/07/05 06:42:38;;;;;;;1.88;0.50;;;;;;;;;;5284091;28;20020;-73
2023/07/05 06:45:09;;;;;;;3.85;0.73;;;;;;;;;;5283803;28;20019;-73
2023/07/05 06:47:41;;;;;;;1.77;0.60;;;;;;;;;;5283673;28;20047;-74
2023/07/05 06:50:12;;;;;;;3.50;0.70;;;;;;;;;;5284264;28;20024;-75
2023/07/05 06:52:44;;;;;;;3.28;0.45;;;;;;;;;;5282738;28;20041;-75
2023/07/05 06:55:15;;;;;;;3.75;0.68;;;;;;;;;;5284335;28;20009;-73
2023/07/05 06:57:46;;;;;;;3.25;0.68;;;;;;;;;;5283390;28;20104;-75
2023/07/05 07:00:17;;;;;;;2.73;0.50;;;;;;;;;;5283408;28;20012;-73
2023/07/05 07:02:49;;;;;;;2.83;0.60;;;;;;;;;;5283345;28;20285;-74
2023/07/05 07:05:20;;;;;;;3.50;0.55;;;;;;;;;;5283482;28;20438;-74
2023/07/05 07:07:51;;;;;;;2.97;0.60;;;;;;;;;;5283402;28;20077;-74
2023/07/05 07:10:22;;;;;;;6.47;0.50;;;;;;;;;;5283637;28;20062;-73
2023/07/05 07:12:54;;;;;;;1.73;0.40;;;;;;;;;;5282483;28;20502;-74
2023/07/05 07:15:25;;;;;;;5.20;0.60;;;;;;;;;;5282132;28;20460;-74
2023/07/05 07:17:57;;;;;;;3.17;0.57;;;;;;;;;;5283290;28;20387;-73
2023/07/05 07:20:28;;;;;;;2.42;0.50;;;;;;;;;;5282754;28;20016;-74
2023/07/05 07:23:00;;;;;;;1.67;0.50;;;;;;;;;;5283257;28;20487;-74
2023/07/05 07:25:31;;;;;;;2.08;0.50;;;;;;;;;;5283299;28;20540;-73
2023/07/05 07:28:02;;;;;;;2.13;0.43;;;;;;;;;;5282516;28;20024;-74
2023/07/05 07:30:33;;;;;;;1.25;0.50;;;;;;;;;;5283091;28;20093;-73
2023/07/05 07:33:04;;;;;;;1.33;0.50;;;;;;;;;;5282539;28;20037;-74
2023/07/05 07:35:36;;;;;;;2.83;0.50;;;;;;;;;;5283240;28;20021;-74
2023/07/05 07:38:07;;;;;;;2.85;0.70;;;;;;;;;;5282811;28;20138;-72
2023/07/05 07:40:38;;;;;;;2.22;0.60;;;;;;;;;;5282104;28;20021;-72
2023/07/05 07:43:09;;;;;;;3.03;0.60;;;;;;;;;;5282723;28;20078;-73
2023/07/05 07:45:40;;;;;;;3.10;0.70;;;;;;;;;;5282857;28;20493;-73
2023/07/05 07:48:12;;;;;;;2.22;0.75;;;;;;;;;;5282832;28;20024;-69
2023/07/05 07:50:50;;;;;;;1.92;0.65;;;;;;;;;;5282328;28;20024;-70
2023/07/05 07:53:21;;;;;;;1.98;0.60;;;;;;;;;;5282825;28;20083;-73
2023/07/05 07:55:52;;;;;;;2.88;0.60;;;;;;;;;;5281971;28;20028;-73
2023/07/05 07:58:24;;;;;;;2.45;0.63;;;;;;;;;;5282767;28;20024;-73
2023/07/05 08:00:55;;;;;;;3.35;0.68;;;;;;;;;;5282557;28;20012;-73
2023/07/05 08:03:27;;;;;;;2.83;0.50;;;;;;;;;;5281437;28;20455;-74
2023/07/05 08:05:59;;;;;;;5.43;0.60;;;;;;;;;;5282046;28;20031;-75
2023/07/05 08:08:31;;;;;;;3.08;0.60;;;;;;;;;;5281910;28;20017;-75
2023/07/05 08:11:03;;;;;;;4.05;0.80;;;;;;;;;;5282563;28;20095;-75
2023/07/05 08:13:34;;;;;;;2.92;0.60;;;;;;;;;;5282190;28;20029;-75
2023/07/05 08:16:06;;;;;;;4.20;0.70;;;;;;;;;;5281672;28;20024;-75
2023/07/05 08:18:38;;;;;;;2.42;0.60;;;;;;;;;;5282208;28;20024;-73
2023/07/05 08:21:09;;;;;;;2.30;0.55;;;;;;;;;;5282128;28;20081;-75
2023/07/05 08:23:41;;;;;;;3.80;0.65;;;;;;;;;;5281406;28;20012;-75
2023/07/05 08:26:12;;;;;;;2.17;0.63;;;;;;;;;;5282393;28;20055;-75
2023/07/05 08:28:44;;;;;;;3.22;0.77;;;;;;;;;;5281770;28;20066;-76
2023/07/05 08:31:16;;;;;;;3.10;0.70;;;;;;;;;;5282157;28;20016;-76
2023/07/05 08:33:47;;;;;;;5.50;0.60;;;;;;;;;;5281635;28;20031;-75
2023/07/05 08:36:27;;;;;;;4.28;0.80;;;;;;;;;;5281513;28;20021;-75
2023/07/05 08:39:01;;;;;;;2.70;0.70;;;;;;;;;;5281769;28;20090;-75
2023/07/05 08:41:33;;;;;;;4.80;0.65;;;;;;;;;;5281817;28;20095;-75
2023/07/05 08:44:23;;;;;;;3.67;0.68;;;;;;;;;;5281020;28;20104;-75
2023/07/05 08:47:04;;;;;;;4.22;0.82;;;;;;;;;;5281784;28;20024;-74
2023/07/05 08:49:54;;;;;;;2.40;0.70;;;;;;;;;;5281874;28;20138;-76
2023/07/05 08:52:28;;;;;;;4.25;0.80;;;;;;;;;;5280734;28;20056;-76
2023/07/05 08:55:02;;;;;;;2.13;0.40;;;;;;;;;;5281868;28;20019;-76
2023/07/05 08:57:37;;;;;;;2.58;0.55;;;;;;;;;;5281146;28;20417;-75
2023/07/05 09:00:11;;;;;;;4.13;0.68;;;;;;;;;;5281635;28;20391;-77
2023/07/05 09:02:42;;;;;;;2.92;0.65;;;;;;;;;;5281464;28;20107;-77
2023/07/05 09:05:22;;;;;;;4.45;0.60;;;;;;;;;;5281170;28;20107;-77
2023/07/05 09:08:06;;;;;;;4.75;0.50;;;;;;;;;;5281317;28;20024;-76
2023/07/05 09:10:41;;;;;;;3.63;0.50;;;;;;;;;;5281432;28;20485;-77
2023/07/05 09:13:12;;;;;;;5.47;0.52;;;;;;;;;;5281334;28;20041;-72
2023/07/05 09:16:04;;;;;;;4.30;0.50;;;;;;;;;;5281184;28;20020;-73
2023/07/05 09:18:47;;;;;;;6.18;0.77;;;;;;;;;;5280467;28;20031;-75
2023/07/05 09:21:19;;;;;;;2.38;0.60;;;;;;;;;;5282040;28;20020;-74
2023/07/05 09:23:55;;;;;;;3.40;0.60;;;;;;;;;;5281157;28;20009;-74
2023/07/05 09:26:28;;;;;;;3.28;0.57;;;;;;;;;;5280793;28;20263;-75
2023/07/05 09:29:04;;;;;;;2.63;0.50;;;;;;;;;;5279279;28;20650;-74
2023/07/05 09:31:36;;;;;;;3.50;0.57;;;;;;;;;;5279163;28;20024;-75
2023/07/05 09:34:14;;;;;;;4.65;0.55;;;;;;;;;;5278423;28;20040;-75
2023/07/05 09:36:46;;;;;;;3.95;0.77;;;;;;;;;;5278965;28;20047;-75
2023/07/05 09:39:28;;;;;;;3.65;0.50;;;;;;;;;;5282335;28;20027;-76
2023/07/05 09:42:02;;;;;;;3.05;0.50;;;;;;;;;;5282458;28;20379;-76
2023/07/05 09:44:34;;;;;;;2.40;0.40;;;;;;;;;;5285392;28;20017;-76
2023/07/05 09:47:05;;;;;;;1.85;0.30;;;;;;;;;;5284794;28;20020;-76
2023/07/05 09:49:36;;;;;;;2.83;0.30;;;;;;;;;;5285277;28;20017;-76
2023/07/05 09:52:10;;;;;;;3.43;0.30;;;;;;;;;;5284893;28;20165;-76
2023/07/05 09:54:42;;;;;;;4.78;0.40;;;;;;;;;;5284061;28;20162;-76
2023/07/05 09:57:21;;;;;;;4.13;0.40;;;;;;;;;;5285101;28;20523;-76
2023/07/05 09:59:52;;;;;;;3.50;0.40;;;;;;;;;;5284853;28;20150;-76
2023/07/05 10:02:25;;;;;;;5.40;0.30;;;;;;;;;;5284022;28;20096;-75
2023/07/05 10:05:09;;;;;;;2.67;0.30;;;;;;;;;;5285033;28;20270;-75
2023/07/05 10:07:51;;;;;;;2.67;0.40;;;;;;;;;;5284629;28;20154;-75
2023/07/05 10:10:27;;;;;;;2.88;0.40;;;;;;;;;;5285268;28;20047;-75
2023/07/05 10:13:03;;;;;;;2.72;0.30;;;;;;;;;;5284245;28;20150;-73
2023/07/05 10:15:40;;;;;;;3.05;0.38;;;;;;;;;;5284155;28;20028;-73
2023/07/05 10:18:27;;;;;;;2.03;0.50;;;;;;;;;;5284973;28;20049;-76
2023/07/05 10:21:01;;;;;;;3.57;0.30;;;;;;;;;;5284488;28;20013;-77
2023/07/05 10:23:35;;;;;;;1.85;0.30;;;;;;;;;;5283774;28;20013;-77
2023/07/05 10:26:07;;;;;;;1.23;0.30;;;;;;;;;;5284551;28;20110;-76
2023/07/05 10:28:40;;;;;;;2.80;0.35;;;;;;;;;;5284227;28;20023;-79
2023/07/05 10:31:25;;;;;;;1.30;0.40;;;;;;;;;;5283978;28;20051;-78
2023/07/05 10:34:18;;;;;;;3.47;0.30;;;;;;;;;;5284090;28;20431;-76
2023/07/05 10:36:50;;;;;;;2.05;0.30;;;;;;;;;;5283073;28;20032;-75
2023/07/05 10:39:23;;;;;;;2.95;0.38;;;;;;;;;;5284486;28;20020;-75
2023/07/05 10:41:56;;;;;;;5.85;1.02;;;;;;;;;;5291194;28;20162;-73
2023/07/05 10:44:31;;;;;;;1.70;0.40;;;;;;;;;;5304234;28;20020;-72
2023/07/05 10:47:03;;;;;;;4.20;0.40;;;;;;;;;;5303055;28;20078;-72
2023/07/05 10:49:35;;;;;;;1.33;0.30;;;;;;;;;;5303400;28;20042;-72
2023/07/05 10:52:10;;;;;;;3.95;0.40;;;;;;;;;;5303670;28;20060;-72
2023/07/05 10:54:44;;;;;;;3.78;0.30;;;;;;;;;;5302480;28;20031;-73
2023/07/05 10:57:18;;;;;;;2.05;0.55;;;;;;;;;;5302299;28;20027;-72
2023/07/05 10:59:55;;;;;;;2.47;0.20;;;;;;;;;;5302308;28;20111;-73
2023/07/05 11:02:36;;;;;;;5.95;0.50;;;;;;;;;;5302584;28;20020;-72
2023/07/05 11:05:26;;;;;;;1.75;0.32;;;;;;;;;;5301581;28;20026;-73
2023/07/05 11:08:00;;;;;;;4.35;0.32;;;;;;;;;;5303213;28;20077;-73
2023/07/05 11:10:36;;;;;;;3.15;0.30;;;;;;;;;;5304715;28;20016;-73
2023/07/05 11:13:14;;;;;;;2.55;0.40;;;;;;;;;;5303767;28;20036;-73
2023/07/05 11:15:46;;;;;;;5.07;0.50;;;;;;;;;;5304337;28;20371;-73
2023/07/05 11:18:18;;;;;;;4.50;0.30;;;;;;;;;;5304124;28;20028;-73
2023/07/05 11:20:51;;;;;;;4.03;0.40;;;;;;;;;;5304207;28;20485;-73
2023/07/05 11:23:40;;;;;;;2.40;0.40;;;;;;;;;;5304726;28;20016;-73
2023/07/05 11:26:28;;;;;;;3.72;0.40;;;;;;;;;;5303791;28;20020;-73
2023/07/05 11:29:00;;;;;;;2.10;0.40;;;;;;;;;;5304515;28;20550;-77
2023/07/05 11:31:43;;;;;;;2.28;0.30;;;;;;;;;;5304181;28;20073;-78
2023/07/05 11:34:20;;;;;;;6.65;0.45;;;;;;;;;;5303658;28;20401;-76
2023/07/05 11:36:52;;;;;;;1.58;0.35;;;;;;;;;;5303602;28;20023;-78
2023/07/05 11:39:39;;;;;;;2.55;0.40;;;;;;;;;;5303496;28;20374;-76
2023/07/05 11:42:16;;;;;;;2.53;0.30;;;;;;;;;;5303984;28;20109;-76
2023/07/05 11:44:48;;;;;;;4.40;0.40;;;;;;;;;;5303720;28;20491;-76
2023/07/05 11:47:21;;;;;;;1.40;0.30;;;;;;;;;;5303636;28;20098;-77
2023/07/05 11:49:53;;;;;;;2.72;0.32;;;;;;;;;;5287048;28;20012;-75
2023/07/05 11:52:25;;;;;;;1.55;0.30;;;;;;;;;;5282234;28;20071;-76
2023/07/05 11:54:59;;;;;;;1.85;0.35;;;;;;;;;;5281647;28;20032;-77
2023/07/05 11:57:34;;;;;;;1.23;0.28;;;;;;;;;;5282649;28;20047;-76
2023/07/05 12:00:41;;;;;;;2.55;0.35;;;;;;;;;;5282401;28;20367;-76
2023/07/05 12:03:12;;;;;;;1.48;0.30;;;;;;;;;;5197745;28;20381;-77
2023/07/05 12:05:44;;;;;;;2.70;0.40;;;;;;;;;;5267485;28;20032;-76
2023/07/05 12:08:16;;;;;;;2.80;0.30;;;;;;;;;;5281854;28;20308;-77
2023/07/05 12:11:00;;;;;;;3.20;0.30;;;;;;;;;;5281612;28;20036;-76
2023/07/05 12:13:33;;;;;;;2.10;0.40;;;;;;;;;;5282192;28;20468;-77
2023/07/05 12:16:06;;;;;;;3.22;0.32;;;;;;;;;;5281380;28;20107;-77
2023/07/05 12:18:37;;;;;;;2.28;0.30;;;;;;;;;;5280862;28;20028;-77
2023/07/05 12:21:11;;;;;;;6.15;0.40;;;;;;;;;;5280038;28;20016;-77
2023/07/05 12:23:43;;;;;;;2.00;0.30;;;;;;;;;;5280898;28;20024;-77
2023/07/05 12:26:21;;;;;;;2.10;0.45;;;;;;;;;;5282335;28;20459;-77
2023/07/05 12:28:53;;;;;;;1.33;0.20;;;;;;;;;;5281000;28;20032;-77
2023/07/05 12:31:25;;;;;;;1.48;0.50;;;;;;;;;;5282041;28;20269;-78
2023/07/05 12:34:00;;;;;;;2.20;0.40;;;;;;;;;;5281726;28;20029;-76
2023/07/05 12:36:40;;;;;;;1.25;0.40;;;;;;;;;;5283559;28;20069;-76
2023/07/05 12:39:14;;;;;;;1.52;0.30;;;;;;;;;;5302508;28;20021;-73
2023/07/05 12:42:08;;;;;;;1.48;0.30;;;;;;;;;;5301286;28;20398;-73
2023/07/05 12:44:40;;;;;;;4.35;0.30;;;;;;;;;;5301741;28;20020;-73
2023/07/05 12:47:15;;;;;;;3.25;0.40;;;;;;;;;;5302777;28;20343;-74
2023/07/05 12:49:48;;;;;;;1.10;0.30;;;;;;;;;;5300982;28;20031;-75
2023/07/05 12:52:21;;;;;;;1.98;0.30;;;;;;;;;;5301805;28;20044;-76
2023/07/05 12:54:53;;;;;;;3.47;0.30;;;;;;;;;;5300976;28;20142;-77
2023/07/05 12:57:27;;;;;;;0.73;0.20;;;;;;;;;;5301819;28;20020;-77
2023/07/05 12:59:59;;;;;;;1.27;0.25;;;;;;;;;;5302482;28;20016;-76
2023/07/05 13:02:30;;;;;;;1.85;0.40;;;;;;;;;;5302513;28;20424;-77
2023/07/05 13:05:02;;;;;;;2.15;0.30;;;;;;;;;;5301924;28;20016;-77
2023/07/05 13:07:35;;;;;;;0.80;0.20;;;;;;;;;;5302543;28;20020;-77
2023/07/05 13:10:06;;;;;;;1.55;0.40;;;;;;;;;;5302204;28;20024;-76
2023/07/05 13:12:58;;;;;;;2.95;0.40;;;;;;;;;;5300586;28;20028;-76
2023/07/05 13:15:36;;;;;;;2.60;0.40;;;;;;;;;;5301864;28;20105;-76
2023/07/05 13:18:14;;;;;;;3.53;0.40;;;;;;;;;;5301659;28;20491;-76
2023/07/05 13:20:46;;;;;;;3.35;0.30;;;;;;;;;;5302001;28;20542;-78
2023/07/05 13:23:26;;;;;;;2.58;0.40;;;;;;;;;;5302817;28;20111;-77
2023/07/05 13:25:58;;;;;;;1.83;0.40;;;;;;;;;;5301556;28;20027;-76
2023/07/05 13:28:30;;;;;;;1.33;0.20;;;;;;;;;;5302362;28;20020;-77
2023/07/05 13:31:02;;;;;;;3.10;0.40;;;;;;;;;;5302064;28;20020;-78
2023/07/05 13:33:34;;;;;;;1.40;0.30;;;;;;;;;;5301514;28;20550;-78
2023/07/05 13:36:06;;;;;;;1.10;0.32;;;;;;;;;;5302119;28;20016;-78
2023/07/05 13:38:37;;;;;;;2.75;0.35;;;;;;;;;;5302272;28;20474;-77
2023/07/05 13:41:08;;;;;;;4.03;0.70;;;;;;;;;;5301501;28;20012;-77
2023/07/05 13:43:39;;;;;;;1.80;0.40;;;;;;;;;;5301888;28;20028;-77
2023/07/05 13:46:11;;;;;;;1.50;0.40;;;;;;;;;;5301594;28;20012;-77
2023/07/05 13:48:42;;;;;;;1.33;0.40;;;;;;;;;;5301923;28;20482;-77
2023/07/05 13:51:23;;;;;;;2.13;0.37;;;;;;;;;;5302438;28;20107;-77
2023/07/05 13:53:54;;;;;;;1.00;0.30;;;;;;;;;;5301011;28;20313;-77
2023/07/05 13:56:26;;;;;;;1.10;0.40;;;;;;;;;;5302324;28;20016;-77
2023/07/05 13:58:57;;;;;;;1.23;0.40;;;;;;;;;;5302279;28;20051;-77
2023/07/05 14:01:29;;;;;;;1.33;0.30;;;;;;;;;;5301452;28;20111;-77
2023/07/05 14:04:00;;;;;;;3.13;0.50;;;;;;;;;;5301794;28;20293;-78
2023/07/05 14:06:32;;;;;;;2.50;0.40;;;;;;;;;;5301909;28;20012;-78
2023/07/05 14:09:03;;;;;;;2.88;0.50;;;;;;;;;;5301299;28;20278;-78
2023/07/05 14:11:39;;;;;;;1.35;0.40;;;;;;;;;;5302138;28;20016;-78
2023/07/05 14:14:12;;;;;;;2.70;0.52;;;;;;;;;;5301541;28;20055;-76
2023/07/05 14:16:43;;;;;;;1.48;0.50;;;;;;;;;;5301638;28;20322;-76
2023/07/05 14:19:14;;;;;;;2.40;0.50;;;;;;;;;;5302719;28;20552;-76
2023/07/05 14:21:45;;;;;;;3.85;0.50;;;;;;;;;;5301581;28;20304;-77
2023/07/05 14:24:17;;;;;;;1.95;0.30;;;;;;;;;;5303681;28;20058;-77
2023/07/05 14:26:48;;;;;;;2.10;0.47;;;;;;;;;;5306098;28;20471;-76
2023/07/05 14:29:19;;;;;;;1.57;0.40;;;;;;;;;;5305012;28;20027;-77
2023/07/05 14:31:50;;;;;;;2.17;0.47;;;;;;;;;;5305190;28;20270;-77
2023/07/05 14:34:22;;;;;;;2.92;0.40;;;;;;;;;;5305422;28;20489;-78
2023/07/05 14:36:54;;;;;;;3.10;0.40;;;;;;;;;;5304421;28;20382;-76
2023/07/05 14:39:25;;;;;;;2.42;0.50;;;;;;;;;;5305274;28;20357;-76
2023/07/05 14:41:56;;;;;;;2.23;0.43;;;;;;;;;;5305368;28;20224;-76
2023/07/05 14:44:28;;;;;;;1.65;0.50;;;;;;;;;;5305032;28;20335;-77
2023/07/05 14:46:59;;;;;;;1.95;0.45;;;;;;;;;;5305615;28;20019;-77
2023/07/05 14:49:30;;;;;;;2.67;0.47;;;;;;;;;;5304340;28;20023;-78
2023/07/05 14:52:02;;;;;;;4.60;0.40;;;;;;;;;;5304778;28;20070;-77
2023/07/05 14:54:33;;;;;;;2.90;0.47;;;;;;;;;;5305403;28;20043;-77
2023/07/05 14:57:09;;;;;;;1.30;0.40;;;;;;;;;;5304117;28;20024;-77
2023/07/05 14:59:40;;;;;;;1.38;0.40;;;;;;;;;;5304777;28;20352;-77
2023/07/05 15:02:16;;;;;;;2.25;0.50;;;;;;;;;;5296764;28;20558;-77
2023/07/05 15:04:48;;;;;;;2.67;0.50;;;;;;;;;;5282308;28;20065;-79
2023/07/05 15:07:19;;;;;;;1.70;0.47;;;;;;;;;;5283881;28;20025;-76
2023/07/05 15:09:51;;;;;;;3.63;0.50;;;;;;;;;;5283301;28;20019;-76
2023/07/05 15:12:24;;;;;;;2.28;0.40;;;;;;;;;;5282648;28;20025;-78
2023/07/05 15:14:55;;;;;;;2.88;0.40;;;;;;;;;;5283293;28;20353;-78
2023/07/05 15:17:27;;;;;;;1.95;0.40;;;;;;;;;;5282013;28;20069;-77
2023/07/05 15:19:58;;;;;;;1.83;0.40;;;;;;;;;;5283252;28;20023;-77